Time;durP1;ratioP1;P1;durP2;ratioP2;P2;SDS_P1;SDS_P2;PMS_P1;PMS_P2;Temp;Humidity;BMP_temperature;BMP_pressure;BME280_temperature;BME280_humidity;BME280_pressure;Samples;Min_cycle;Max_cycle;Signal;HPM_P1;HPM_P2
2022/06/15 00:01:01;;;;;;;6.57;2.07;;;;;;;;;;4974882;28;20207;-52
2022/06/15 00:03:30;;;;;;;5.67;2.17;;;;;;;;;;4974982;28;20313;-52
2022/06/15 00:06:03;;;;;;;3.50;1.97;;;;;;;;;;4974817;28;20250;-59
2022/06/15 00:08:29;;;;;;;3.47;1.63;;;;;;;;;;4974986;28;20214;-52
2022/06/15 00:10:55;;;;;;;3.97;2.10;;;;;;;;;;4974753;28;20603;-52
2022/06/15 00:13:21;;;;;;;6.63;2.33;;;;;;;;;;4974782;28;20230;-51
2022/06/15 00:15:48;;;;;;;3.47;2.13;;;;;;;;;;4974916;28;20210;-51
2022/06/15 00:18:14;;;;;;;3.83;2.07;;;;;;;;;;4974738;28;20228;-51
2022/06/15 00:20:41;;;;;;;6.47;2.20;;;;;;;;;;4974661;28;20570;-52
2022/06/15 00:23:07;;;;;;;4.17;2.07;;;;;;;;;;4974657;28;20314;-52
2022/06/15 00:25:33;;;;;;;4.50;2.50;;;;;;;;;;4974444;28;20309;-53
2022/06/15 00:27:59;;;;;;;3.33;2.40;;;;;;;;;;4974545;28;20685;-52
2022/06/15 00:30:25;;;;;;;4.63;2.23;;;;;;;;;;4974412;28;20235;-52
2022/06/15 00:32:51;;;;;;;6.03;2.40;;;;;;;;;;4974326;28;20202;-52
2022/06/15 00:35:18;;;;;;;5.93;2.73;;;;;;;;;;4974538;28;20227;-52
2022/06/15 00:37:45;;;;;;;6.70;2.50;;;;;;;;;;4974273;28;20253;-52
2022/06/15 00:40:11;;;;;;;3.87;2.50;;;;;;;;;;4974179;28;20230;-52
2022/06/15 00:42:37;;;;;;;5.40;2.50;;;;;;;;;;4974369;28;20207;-52
2022/06/15 00:45:04;;;;;;;5.87;2.30;;;;;;;;;;4974081;28;20199;-52
2022/06/15 00:47:30;;;;;;;5.30;2.80;;;;;;;;;;4974407;28;20210;-52
2022/06/15 00:49:59;;;;;;;4.07;2.27;;;;;;;;;;4974196;28;20203;-52
2022/06/15 00:52:32;;;;;;;4.63;1.97;;;;;;;;;;4974174;28;20205;-52
2022/06/15 00:55:01;;;;;;;3.93;2.10;;;;;;;;;;4973981;28;20222;-52
2022/06/15 00:57:27;;;;;;;3.47;2.20;;;;;;;;;;4974250;28;20210;-53
2022/06/15 00:59:54;;;;;;;2.87;2.00;;;;;;;;;;4973909;28;20258;-52
2022/06/15 01:02:21;;;;;;;4.53;2.70;;;;;;;;;;4973888;28;20202;-52
2022/06/15 01:04:52;;;;;;;4.30;2.40;;;;;;;;;;4973067;28;20234;-52
2022/06/15 01:07:27;;;;;;;4.43;2.50;;;;;;;;;;4972403;28;20199;-52
2022/06/15 01:09:56;;;;;;;7.10;2.60;;;;;;;;;;4973713;28;20285;-52
2022/06/15 01:12:27;;;;;;;4.63;2.23;;;;;;;;;;4973800;28;20306;-53
2022/06/15 01:15:02;;;;;;;5.00;2.60;;;;;;;;;;4973601;28;20199;-53
2022/06/15 01:17:33;;;;;;;4.30;2.30;;;;;;;;;;4973683;28;20292;-52
2022/06/15 01:20:05;;;;;;;5.90;2.30;;;;;;;;;;4973481;28;20668;-53
2022/06/15 01:22:42;;;;;;;4.23;2.60;;;;;;;;;;4973481;28;20199;-53
2022/06/15 01:25:20;;;;;;;4.57;2.53;;;;;;;;;;4973330;28;20199;-53
2022/06/15 01:28:04;;;;;;;3.37;2.07;;;;;;;;;;4973592;28;20209;-53
2022/06/15 01:30:34;;;;;;;4.80;3.10;;;;;;;;;;4973227;28;20756;-53
2022/06/15 01:33:07;;;;;;;3.73;2.10;;;;;;;;;;4973347;28;20238;-53
2022/06/15 01:35:37;;;;;;;5.07;2.70;;;;;;;;;;4973248;28;20210;-53
2022/06/15 01:38:19;;;;;;;3.90;2.63;;;;;;;;;;4971842;28;20196;-53
2022/06/15 01:40:47;;;;;;;4.00;2.50;;;;;;;;;;4973202;28;20653;-53
2022/06/15 01:43:15;;;;;;;4.13;2.27;;;;;;;;;;4972957;28;20305;-53
2022/06/15 01:45:44;;;;;;;6.60;2.70;;;;;;;;;;4973128;28;20290;-53
2022/06/15 01:48:12;;;;;;;3.27;2.30;;;;;;;;;;4973175;28;20211;-53
2022/06/15 01:50:39;;;;;;;4.83;2.57;;;;;;;;;;4971392;28;20225;-53
2022/06/15 01:53:10;;;;;;;6.53;2.43;;;;;;;;;;4972908;28;20203;-53
2022/06/15 01:55:38;;;;;;;7.23;2.90;;;;;;;;;;4972913;28;20191;-53
2022/06/15 01:58:06;;;;;;;5.40;2.70;;;;;;;;;;4973036;28;20214;-53
2022/06/15 02:00:32;;;;;;;4.13;2.50;;;;;;;;;;4972988;28;20203;-53
2022/06/15 02:03:04;;;;;;;4.77;2.50;;;;;;;;;;4972800;28;20237;-53
2022/06/15 02:05:35;;;;;;;5.83;2.60;;;;;;;;;;4973078;28;20222;-53
2022/06/15 02:08:04;;;;;;;5.23;2.40;;;;;;;;;;4972981;28;20203;-53
2022/06/15 02:10:33;;;;;;;3.23;2.73;;;;;;;;;;4972968;28;20213;-53
2022/06/15 02:13:01;;;;;;;3.67;2.73;;;;;;;;;;4972692;28;20203;-53
2022/06/15 02:15:29;;;;;;;4.53;2.43;;;;;;;;;;4972803;28;20714;-53
2022/06/15 02:17:57;;;;;;;5.13;3.10;;;;;;;;;;4972558;28;20195;-53
2022/06/15 02:20:28;;;;;;;3.77;2.80;;;;;;;;;;4972858;28;20289;-53
2022/06/15 02:22:55;;;;;;;3.57;2.53;;;;;;;;;;4972521;28;20211;-53
2022/06/15 02:25:22;;;;;;;4.73;2.70;;;;;;;;;;4972364;28;20562;-53
2022/06/15 02:27:50;;;;;;;2.93;2.50;;;;;;;;;;4972350;28;20202;-52
2022/06/15 02:30:18;;;;;;;4.97;2.80;;;;;;;;;;4972228;28;20283;-53
2022/06/15 02:32:44;;;;;;;4.40;2.83;;;;;;;;;;4972259;28;20675;-53
2022/06/15 02:35:10;;;;;;;3.33;2.67;;;;;;;;;;4972365;28;20293;-53
2022/06/15 02:37:38;;;;;;;5.40;2.87;;;;;;;;;;4972288;28;20223;-53
2022/06/15 02:40:04;;;;;;;7.07;2.90;;;;;;;;;;4972151;28;20202;-52
2022/06/15 02:42:32;;;;;;;5.63;2.60;;;;;;;;;;4972612;28;20641;-52
2022/06/15 02:45:00;;;;;;;3.50;2.63;;;;;;;;;;4972194;28;20218;-52
2022/06/15 02:47:27;;;;;;;3.37;2.77;;;;;;;;;;4972244;28;20257;-52
2022/06/15 02:49:54;;;;;;;5.07;2.70;;;;;;;;;;4972143;28;20549;-52
2022/06/15 02:52:21;;;;;;;5.50;3.10;;;;;;;;;;4972027;28;20207;-53
2022/06/15 02:54:49;;;;;;;3.70;2.93;;;;;;;;;;4972265;28;20210;-53
2022/06/15 02:57:16;;;;;;;3.80;2.77;;;;;;;;;;4972178;28;20211;-53
2022/06/15 02:59:44;;;;;;;5.13;2.90;;;;;;;;;;4972056;28;20258;-53
2022/06/15 03:02:14;;;;;;;3.10;2.73;;;;;;;;;;4972096;28;20207;-53
2022/06/15 03:04:40;;;;;;;4.57;3.00;;;;;;;;;;4972140;28;20577;-53
2022/06/15 03:07:06;;;;;;;4.03;2.90;;;;;;;;;;4971944;28;20234;-53
2022/06/15 03:09:32;;;;;;;7.40;3.27;;;;;;;;;;4972131;28;20253;-53
2022/06/15 03:11:59;;;;;;;5.90;3.33;;;;;;;;;;4971932;28;20199;-52
2022/06/15 03:14:25;;;;;;;4.73;3.00;;;;;;;;;;4971769;28;20279;-52
2022/06/15 03:16:51;;;;;;;5.60;3.80;;;;;;;;;;4972018;28;20677;-52
2022/06/15 03:19:17;;;;;;;8.13;4.00;;;;;;;;;;4971801;28;20207;-53
2022/06/15 03:21:43;;;;;;;6.50;3.80;;;;;;;;;;4972053;28;20282;-53
2022/06/15 03:24:09;;;;;;;4.50;3.40;;;;;;;;;;4971826;28;20231;-53
2022/06/15 03:26:35;;;;;;;5.73;2.93;;;;;;;;;;4971325;28;20227;-53
2022/06/15 03:29:03;;;;;;;4.53;2.87;;;;;;;;;;4973431;28;20195;-52
2022/06/15 03:31:29;;;;;;;5.70;2.87;;;;;;;;;;4975473;28;20214;-52
2022/06/15 03:33:55;;;;;;;5.93;2.97;;;;;;;;;;4975184;28;20229;-52
2022/06/15 03:36:21;;;;;;;5.47;3.03;;;;;;;;;;4975302;28;20214;-53
2022/06/15 03:38:47;;;;;;;5.80;2.70;;;;;;;;;;4975085;28;20206;-52
2022/06/15 03:41:13;;;;;;;5.73;3.30;;;;;;;;;;4975069;28;20199;-52
2022/06/15 03:43:39;;;;;;;6.10;2.63;;;;;;;;;;4975102;28;20240;-52
2022/06/15 03:46:07;;;;;;;5.90;3.13;;;;;;;;;;4974894;28;20203;-53
2022/06/15 03:48:33;;;;;;;4.60;2.53;;;;;;;;;;4975142;28;20654;-52
2022/06/15 03:50:59;;;;;;;5.87;3.23;;;;;;;;;;4974868;28;20207;-52
2022/06/15 03:53:25;;;;;;;4.37;2.80;;;;;;;;;;4974954;28;20201;-52
2022/06/15 03:55:51;;;;;;;5.60;2.90;;;;;;;;;;4974802;28;20203;-52
2022/06/15 03:58:20;;;;;;;3.70;2.50;;;;;;;;;;4974627;28;20195;-52
2022/06/15 04:00:46;;;;;;;3.50;2.80;;;;;;;;;;4974970;28;20246;-52
2022/06/15 04:03:14;;;;;;;6.17;3.80;;;;;;;;;;4974496;28;20264;-53
2022/06/15 04:05:41;;;;;;;4.97;2.50;;;;;;;;;;4974726;28;20211;-52
2022/06/15 04:10:58;;;;;;;4.33;2.70;;;;;;;;;;4974763;28;20218;-52
2022/06/15 04:13:24;;;;;;;3.43;2.40;;;;;;;;;;4974587;28;20573;-52
2022/06/15 04:15:50;;;;;;;4.97;2.63;;;;;;;;;;4974795;28;20594;-53
2022/06/15 04:18:17;;;;;;;5.73;3.00;;;;;;;;;;4974523;28;20273;-53
2022/06/15 04:20:43;;;;;;;6.37;2.73;;;;;;;;;;4974385;28;20199;-52
2022/06/15 04:23:10;;;;;;;6.83;2.57;;;;;;;;;;4974350;28;20202;-53
2022/06/15 04:25:38;;;;;;;6.07;2.63;;;;;;;;;;4974290;28;20228;-53
2022/06/15 04:28:05;;;;;;;4.07;2.40;;;;;;;;;;4974114;28;20226;-52
2022/06/15 04:30:31;;;;;;;5.47;2.67;;;;;;;;;;4974288;28;20267;-53
2022/06/15 04:32:57;;;;;;;5.73;2.53;;;;;;;;;;4974075;28;20199;-53
2022/06/15 04:35:24;;;;;;;3.63;2.27;;;;;;;;;;4974124;28;20206;-52
2022/06/15 04:37:50;;;;;;;3.43;2.67;;;;;;;;;;4974357;28;20234;-52
2022/06/15 04:40:17;;;;;;;6.43;2.60;;;;;;;;;;4973712;28;20226;-52
2022/06/15 04:42:43;;;;;;;4.00;2.47;;;;;;;;;;4974334;28;20282;-52
2022/06/15 04:45:10;;;;;;;4.23;2.67;;;;;;;;;;4973858;28;20233;-52
2022/06/15 04:47:36;;;;;;;6.97;2.63;;;;;;;;;;4974033;28;20226;-52
2022/06/15 04:50:02;;;;;;;4.33;2.27;;;;;;;;;;4974025;28;20294;-53
2022/06/15 04:52:30;;;;;;;6.27;2.73;;;;;;;;;;4973842;28;20199;-52
2022/06/15 04:54:56;;;;;;;4.90;2.47;;;;;;;;;;4973772;28;20571;-52
2022/06/15 04:57:22;;;;;;;4.67;2.40;;;;;;;;;;4973612;28;20210;-52
2022/06/15 04:59:48;;;;;;;4.60;2.40;;;;;;;;;;4973681;28;20202;-53
2022/06/15 05:02:14;;;;;;;3.13;2.13;;;;;;;;;;4973529;28;20202;-52
2022/06/15 05:04:42;;;;;;;5.40;2.80;;;;;;;;;;4973535;28;20251;-52
2022/06/15 05:07:08;;;;;;;4.30;2.47;;;;;;;;;;4973451;28;20199;-51
2022/06/15 05:09:35;;;;;;;4.67;2.00;;;;;;;;;;4973407;28;20205;-52
2022/06/15 05:12:01;;;;;;;6.70;2.37;;;;;;;;;;4973297;28;20202;-52
2022/06/15 05:14:27;;;;;;;5.27;2.70;;;;;;;;;;4973330;28;20195;-51
2022/06/15 05:16:53;;;;;;;3.80;2.77;;;;;;;;;;4972999;28;20210;-53
2022/06/15 05:19:20;;;;;;;3.57;2.70;;;;;;;;;;4973097;28;20199;-53
2022/06/15 05:21:46;;;;;;;5.20;2.60;;;;;;;;;;4973474;28;20246;-53
2022/06/15 05:24:12;;;;;;;7.57;3.00;;;;;;;;;;4972916;28;20792;-53
2022/06/15 05:26:39;;;;;;;3.83;2.50;;;;;;;;;;4973315;28;20231;-53
2022/06/15 05:29:06;;;;;;;4.47;3.30;;;;;;;;;;4973076;28;20254;-53
2022/06/15 05:31:32;;;;;;;4.53;2.70;;;;;;;;;;4972908;28;20210;-53
2022/06/15 05:33:58;;;;;;;4.43;2.60;;;;;;;;;;4973090;28;20193;-53
2022/06/15 05:36:26;;;;;;;3.97;2.23;;;;;;;;;;4972833;28;20323;-53
2022/06/15 05:38:52;;;;;;;5.17;2.20;;;;;;;;;;4972919;28;20576;-53
2022/06/15 05:41:18;;;;;;;5.30;2.47;;;;;;;;;;4972687;28;20610;-53
2022/06/15 05:43:47;;;;;;;4.67;2.20;;;;;;;;;;4972661;28;20234;-53
2022/06/15 05:46:14;;;;;;;4.53;2.30;;;;;;;;;;4972834;28;20274;-53
2022/06/15 05:48:40;;;;;;;7.63;2.37;;;;;;;;;;4972851;28;20198;-52
2022/06/15 05:51:06;;;;;;;3.23;2.07;;;;;;;;;;4972050;28;20678;-53
2022/06/15 05:53:32;;;;;;;4.90;2.13;;;;;;;;;;4972838;28;20195;-52
2022/06/15 05:55:58;;;;;;;4.93;2.03;;;;;;;;;;4972774;28;20563;-52
2022/06/15 05:58:24;;;;;;;3.33;1.90;;;;;;;;;;4972546;28;20227;-52
2022/06/15 06:00:51;;;;;;;4.90;2.10;;;;;;;;;;4972549;28;20593;-52
2022/06/15 06:03:18;;;;;;;4.40;1.80;;;;;;;;;;4972431;28;20207;-51
2022/06/15 06:05:44;;;;;;;5.53;1.90;;;;;;;;;;4972885;28;20281;-52
2022/06/15 06:08:10;;;;;;;2.37;1.67;;;;;;;;;;4972621;28;20294;-55
2022/06/15 06:10:36;;;;;;;4.53;2.27;;;;;;;;;;4972451;28;20198;-52
2022/06/15 06:13:02;;;;;;;4.40;2.20;;;;;;;;;;4972885;28;20198;-53
2022/06/15 06:15:29;;;;;;;4.13;2.00;;;;;;;;;;4972170;28;20202;-52
2022/06/15 06:18:01;;;;;;;3.43;2.03;;;;;;;;;;4972340;28;20236;-52
2022/06/15 06:20:27;;;;;;;4.23;2.23;;;;;;;;;;4972292;28;20294;-52
2022/06/15 06:22:53;;;;;;;6.33;2.20;;;;;;;;;;4972303;28;20203;-52
2022/06/15 06:25:19;;;;;;;3.23;1.93;;;;;;;;;;4972089;28;20710;-52
2022/06/15 06:27:45;;;;;;;4.17;2.00;;;;;;;;;;4972605;28;20211;-51
2022/06/15 06:30:12;;;;;;;5.67;2.43;;;;;;;;;;4971926;28;20538;-52
2022/06/15 06:32:38;;;;;;;5.30;1.70;;;;;;;;;;4972335;28;20234;-53
2022/06/15 06:35:07;;;;;;;3.10;1.90;;;;;;;;;;4972056;28;20224;-52
2022/06/15 06:37:35;;;;;;;5.83;2.00;;;;;;;;;;4972158;28;20213;-52
2022/06/15 06:40:01;;;;;;;2.27;1.77;;;;;;;;;;4972335;28;20239;-53
2022/06/15 06:42:27;;;;;;;3.23;1.87;;;;;;;;;;4972159;28;20216;-53
2022/06/15 06:44:53;;;;;;;3.33;1.70;;;;;;;;;;4972047;28;20279;-53
2022/06/15 06:47:19;;;;;;;4.23;1.90;;;;;;;;;;4972252;28;20257;-53
2022/06/15 06:49:45;;;;;;;4.67;1.97;;;;;;;;;;4972175;28;20270;-53
2022/06/15 06:52:12;;;;;;;3.07;1.73;;;;;;;;;;4972300;28;20213;-54
2022/06/15 06:54:38;;;;;;;6.10;2.23;;;;;;;;;;4972129;28;20594;-54
2022/06/15 06:57:05;;;;;;;4.43;1.97;;;;;;;;;;4971811;28;20205;-54
2022/06/15 06:59:30;;;;;;;5.60;2.00;;;;;;;;;;4972086;28;20670;-53
2022/06/15 07:01:57;;;;;;;4.13;1.87;;;;;;;;;;4972189;28;20789;-54
2022/06/15 07:04:23;;;;;;;3.00;1.60;;;;;;;;;;4974531;28;20256;-53
2022/06/15 07:06:49;;;;;;;4.53;1.77;;;;;;;;;;4975636;28;20234;-53
2022/06/15 07:09:16;;;;;;;3.13;1.60;;;;;;;;;;4975627;28;20205;-52
2022/06/15 07:11:43;;;;;;;3.30;1.73;;;;;;;;;;4975801;28;20199;-53
2022/06/15 07:14:09;;;;;;;1.97;1.57;;;;;;;;;;4975528;28;20191;-53
2022/06/15 07:16:36;;;;;;;3.20;1.90;;;;;;;;;;4975359;28;20257;-53
2022/06/15 07:19:02;;;;;;;3.57;1.70;;;;;;;;;;4975617;28;20202;-53
2022/06/15 07:21:28;;;;;;;2.40;1.60;;;;;;;;;;4975210;28;20213;-53
2022/06/15 07:23:55;;;;;;;3.10;1.70;;;;;;;;;;4975283;28;20291;-54
2022/06/15 07:26:24;;;;;;;3.60;1.70;;;;;;;;;;4975057;28;20230;-53
2022/06/15 07:28:50;;;;;;;5.03;1.80;;;;;;;;;;4975170;28;20247;-53
2022/06/15 07:31:20;;;;;;;5.60;1.60;;;;;;;;;;4975351;28;20214;-53
2022/06/15 07:33:46;;;;;;;4.80;1.73;;;;;;;;;;4975543;28;20199;-53
2022/06/15 07:36:12;;;;;;;3.23;1.63;;;;;;;;;;4975129;28;20203;-53
2022/06/15 07:38:38;;;;;;;4.43;1.57;;;;;;;;;;4975124;28;20207;-53
2022/06/15 07:41:04;;;;;;;3.33;1.93;;;;;;;;;;4975209;28;20548;-53
2022/06/15 07:43:32;;;;;;;3.90;1.70;;;;;;;;;;4974827;28;20236;-53
2022/06/15 07:45:58;;;;;;;4.30;1.47;;;;;;;;;;4975028;28;20211;-53
2022/06/15 07:51:22;;;;;;;2.97;1.70;;;;;;;;;;4974834;28;20249;-53
2022/06/15 07:53:48;;;;;;;3.53;1.67;;;;;;;;;;4974871;28;20562;-53
2022/06/15 07:56:14;;;;;;;2.53;1.60;;;;;;;;;;4974803;28;20673;-53
2022/06/15 07:58:42;;;;;;;6.47;1.60;;;;;;;;;;4974773;28;20208;-53
2022/06/15 08:01:07;;;;;;;3.60;1.67;;;;;;;;;;4974789;28;20232;-53
2022/06/15 08:03:35;;;;;;;4.70;1.50;;;;;;;;;;4974699;28;20674;-52
2022/06/15 08:06:01;;;;;;;4.07;1.70;;;;;;;;;;4974942;28;20618;-54
2022/06/15 08:08:27;;;;;;;2.70;1.57;;;;;;;;;;4974595;28;20204;-53
2022/06/15 08:10:53;;;;;;;3.43;1.40;;;;;;;;;;4974850;28;20200;-53
2022/06/15 08:13:19;;;;;;;4.20;1.53;;;;;;;;;;4974732;28;20873;-54
2022/06/15 08:15:47;;;;;;;3.97;1.77;;;;;;;;;;4974196;28;20199;-54
2022/06/15 08:18:14;;;;;;;3.40;1.63;;;;;;;;;;4974389;28;20252;-51
2022/06/15 08:20:43;;;;;;;7.37;1.63;;;;;;;;;;4974320;28;20226;-55
2022/06/15 08:23:11;;;;;;;6.23;1.97;;;;;;;;;;4974705;28;20197;-53
2022/06/15 08:25:39;;;;;;;5.97;1.70;;;;;;;;;;4974426;28;20241;-52
2022/06/15 08:28:06;;;;;;;2.43;1.50;;;;;;;;;;4974602;28;20204;-53
2022/06/15 08:30:34;;;;;;;4.27;1.57;;;;;;;;;;4974102;28;20244;-55
2022/06/15 08:33:01;;;;;;;5.07;1.60;;;;;;;;;;4974403;28;20199;-55
2022/06/15 08:35:27;;;;;;;3.90;1.97;;;;;;;;;;4974067;28;20204;-55
2022/06/15 08:37:53;;;;;;;4.33;1.60;;;;;;;;;;4974306;28;20198;-55
2022/06/15 08:40:19;;;;;;;2.77;1.80;;;;;;;;;;4974075;28;20227;-55
2022/06/15 08:42:51;;;;;;;9.03;1.60;;;;;;;;;;4973959;28;20205;-55
2022/06/15 08:45:19;;;;;;;3.40;1.57;;;;;;;;;;4973701;28;20333;-55
2022/06/15 08:47:52;;;;;;;4.47;1.53;;;;;;;;;;4974038;28;20215;-55
2022/06/15 08:50:24;;;;;;;3.67;1.70;;;;;;;;;;4974048;28;20256;-55
2022/06/15 08:52:53;;;;;;;3.33;1.80;;;;;;;;;;4974216;28;20206;-55
2022/06/15 08:55:24;;;;;;;4.40;1.70;;;;;;;;;;4973641;28;20190;-55
2022/06/15 08:57:52;;;;;;;2.80;1.77;;;;;;;;;;4973856;28;20211;-55
2022/06/15 09:00:19;;;;;;;4.60;1.80;;;;;;;;;;4974089;28;20206;-55
2022/06/15 09:02:50;;;;;;;4.50;1.50;;;;;;;;;;4973735;28;20199;-55
2022/06/15 09:05:22;;;;;;;3.37;1.33;;;;;;;;;;4973876;28;20280;-55
2022/06/15 09:07:59;;;;;;;3.43;1.70;;;;;;;;;;4973639;28;20669;-56
2022/06/15 09:10:31;;;;;;;6.47;1.80;;;;;;;;;;4973529;28;20211;-56
2022/06/15 09:13:02;;;;;;;5.00;1.70;;;;;;;;;;4972275;28;20620;-55
2022/06/15 09:15:34;;;;;;;3.60;1.60;;;;;;;;;;4973302;28;20195;-55
2022/06/15 09:18:02;;;;;;;4.13;1.90;;;;;;;;;;4973476;28;20218;-56
2022/06/15 09:20:30;;;;;;;3.47;1.80;;;;;;;;;;4972837;28;20653;-54
2022/06/15 09:23:00;;;;;;;3.80;1.60;;;;;;;;;;4972855;28;20206;-54
2022/06/15 09:25:29;;;;;;;5.00;1.80;;;;;;;;;;4972754;28;20246;-54
2022/06/15 09:27:58;;;;;;;2.97;1.77;;;;;;;;;;4972763;28;20206;-55
2022/06/15 09:30:27;;;;;;;2.97;1.40;;;;;;;;;;4972830;28;20626;-56
2022/06/15 09:32:54;;;;;;;3.40;1.63;;;;;;;;;;4973218;28;20289;-56
2022/06/15 09:35:23;;;;;;;3.20;1.37;;;;;;;;;;4973309;28;20196;-56
2022/06/15 09:37:50;;;;;;;4.03;1.83;;;;;;;;;;4973205;28;20196;-56
2022/06/15 09:40:19;;;;;;;3.33;1.90;;;;;;;;;;4970070;28;20494;-56
2022/06/15 09:42:50;;;;;;;5.93;1.57;;;;;;;;;;4972875;28;20204;-56
2022/06/15 09:45:20;;;;;;;3.10;1.50;;;;;;;;;;4972790;28;20230;-56
2022/06/15 09:47:51;;;;;;;2.47;1.40;;;;;;;;;;4973011;28;20204;-56
2022/06/15 09:50:22;;;;;;;4.27;1.70;;;;;;;;;;4972687;28;20216;-56
2022/06/15 09:52:56;;;;;;;3.27;1.63;;;;;;;;;;4972504;28;20198;-56
2022/06/15 09:55:28;;;;;;;2.40;1.50;;;;;;;;;;4972560;28;20200;-56
2022/06/15 09:57:54;;;;;;;3.83;1.80;;;;;;;;;;4972483;28;20209;-56
2022/06/15 10:00:20;;;;;;;4.50;1.80;;;;;;;;;;4972556;28;20201;-56
2022/06/15 10:02:47;;;;;;;4.67;1.60;;;;;;;;;;4972414;28;20206;-56
2022/06/15 10:05:19;;;;;;;5.23;1.60;;;;;;;;;;4972199;28;20230;-56
2022/06/15 10:07:45;;;;;;;3.90;1.67;;;;;;;;;;4972299;28;20202;-54
2022/06/15 10:10:16;;;;;;;3.87;1.60;;;;;;;;;;4972760;28;20283;-56
2022/06/15 10:12:58;;;;;;;5.43;1.63;;;;;;;;;;4972656;28;20204;-56
2022/06/15 10:15:25;;;;;;;4.10;1.53;;;;;;;;;;4972250;28;20201;-56
2022/06/15 10:17:54;;;;;;;3.23;1.80;;;;;;;;;;4972368;28;20204;-56
2022/06/15 10:20:21;;;;;;;4.23;1.60;;;;;;;;;;4972315;28;20201;-56
2022/06/15 10:22:51;;;;;;;3.70;1.67;;;;;;;;;;4972092;28;20196;-56
2022/06/15 10:25:18;;;;;;;2.67;1.70;;;;;;;;;;4972209;28;20239;-56
2022/06/15 10:27:46;;;;;;;3.87;1.60;;;;;;;;;;4972451;28;20212;-57
2022/06/15 10:30:17;;;;;;;2.67;1.70;;;;;;;;;;4972104;28;20247;-57
2022/06/15 10:32:57;;;;;;;2.07;1.57;;;;;;;;;;4972068;28;20199;-56
2022/06/15 10:35:24;;;;;;;5.63;1.77;;;;;;;;;;4971854;28;20197;-57
2022/06/15 10:37:51;;;;;;;4.73;1.70;;;;;;;;;;4973615;28;20642;-56
2022/06/15 10:40:22;;;;;;;3.67;1.50;;;;;;;;;;4976407;28;20329;-56
2022/06/15 10:42:51;;;;;;;3.00;1.70;;;;;;;;;;4976174;28;20208;-56
2022/06/15 10:45:21;;;;;;;3.97;1.53;;;;;;;;;;4976031;28;20229;-56
2022/06/15 10:47:53;;;;;;;4.57;1.80;;;;;;;;;;4975548;28;20229;-57
2022/06/15 10:50:22;;;;;;;4.10;1.60;;;;;;;;;;4975937;28;20213;-57
2022/06/15 10:52:51;;;;;;;3.67;1.67;;;;;;;;;;4975719;28;20866;-57
2022/06/15 11:04:03;;;;;;;2.33;1.37;;;;;;;;;;4975626;28;20244;-56
2022/06/15 11:06:35;;;;;;;4.30;1.70;;;;;;;;;;4973573;28;20209;-57
2022/06/15 11:09:01;;;;;;;2.03;1.60;;;;;;;;;;4975747;28;20203;-57
2022/06/15 11:11:27;;;;;;;3.17;1.70;;;;;;;;;;4975996;28;20209;-54
2022/06/15 11:13:56;;;;;;;3.30;1.47;;;;;;;;;;4975867;28;20206;-54
2022/06/15 11:19:14;;;;;;;5.37;2.10;;;;;;;;;;4975741;28;20189;-56
2022/06/15 11:21:45;;;;;;;2.43;1.63;;;;;;;;;;4975545;28;20272;-54
2022/06/15 11:24:15;;;;;;;5.17;1.50;;;;;;;;;;4975682;28;20250;-56
2022/06/15 11:26:57;;;;;;;3.43;1.60;;;;;;;;;;4975623;28;20774;-57
2022/06/15 11:29:36;;;;;;;2.67;1.60;;;;;;;;;;4974453;28;20242;-57
2022/06/15 11:32:06;;;;;;;4.23;1.73;;;;;;;;;;4975423;28;20230;-57
2022/06/15 11:34:33;;;;;;;5.80;2.13;;;;;;;;;;4975348;28;20679;-57
2022/06/15 11:37:06;;;;;;;2.97;1.80;;;;;;;;;;4975447;28;20202;-57
2022/06/15 11:39:34;;;;;;;3.07;1.60;;;;;;;;;;4975278;28;20202;-57
2022/06/15 11:42:01;;;;;;;3.67;1.57;;;;;;;;;;4975521;28;20550;-57
2022/06/15 11:44:29;;;;;;;3.10;1.50;;;;;;;;;;4975308;28;20232;-57
2022/06/15 11:47:09;;;;;;;5.00;1.80;;;;;;;;;;4975150;28;20569;-58
2022/06/15 11:49:40;;;;;;;3.27;1.70;;;;;;;;;;4974045;28;20686;-57
2022/06/15 11:52:11;;;;;;;4.83;1.60;;;;;;;;;;4974733;28;20562;-57
2022/06/15 11:54:43;;;;;;;4.07;1.80;;;;;;;;;;4974854;28;20203;-57
2022/06/15 11:57:14;;;;;;;4.00;1.90;;;;;;;;;;4975081;28;20215;-57
2022/06/15 11:59:43;;;;;;;3.57;1.63;;;;;;;;;;4974942;28;20211;-57
2022/06/15 12:02:15;;;;;;;5.80;2.00;;;;;;;;;;4974805;28;20200;-57
2022/06/15 12:05:00;;;;;;;4.27;1.73;;;;;;;;;;4974740;28;20236;-58
2022/06/15 12:07:30;;;;;;;5.20;1.80;;;;;;;;;;4974441;28;20553;-56
2022/06/15 12:09:59;;;;;;;3.77;1.70;;;;;;;;;;4974202;28;20213;-56
2022/06/15 12:12:38;;;;;;;3.20;1.60;;;;;;;;;;4974633;28;20200;-58
2022/06/15 12:15:09;;;;;;;4.37;1.80;;;;;;;;;;4974603;28;20608;-56
2022/06/15 12:17:40;;;;;;;3.27;1.67;;;;;;;;;;4974286;28;20201;-56
2022/06/15 12:20:12;;;;;;;4.00;1.53;;;;;;;;;;4974856;28;20213;-56
2022/06/15 12:22:44;;;;;;;3.60;1.50;;;;;;;;;;4974454;28;20238;-57
2022/06/15 12:25:15;;;;;;;5.63;1.80;;;;;;;;;;4972978;28;20230;-57
2022/06/15 12:27:47;;;;;;;3.43;1.70;;;;;;;;;;4974531;28;20206;-56
2022/06/15 12:30:19;;;;;;;4.57;1.70;;;;;;;;;;4974601;28;20237;-56
2022/06/15 12:32:52;;;;;;;2.17;1.50;;;;;;;;;;4974450;28;20652;-57
2022/06/15 12:35:31;;;;;;;5.03;1.90;;;;;;;;;;4974643;28;20246;-56
2022/06/15 12:38:00;;;;;;;4.60;1.60;;;;;;;;;;4974370;28;20212;-57
2022/06/15 12:40:30;;;;;;;3.03;1.80;;;;;;;;;;4974304;28;20209;-57
2022/06/15 12:43:01;;;;;;;6.03;1.63;;;;;;;;;;4974329;28;20609;-57
2022/06/15 12:45:30;;;;;;;4.40;1.73;;;;;;;;;;4974512;28;20690;-57
2022/06/15 12:47:59;;;;;;;3.80;2.10;;;;;;;;;;4973984;28;20675;-56
2022/06/15 12:50:37;;;;;;;2.60;1.60;;;;;;;;;;4974141;28;20599;-57
2022/06/15 12:53:08;;;;;;;3.27;1.43;;;;;;;;;;4974247;28;20220;-57
2022/06/15 12:55:36;;;;;;;3.03;1.60;;;;;;;;;;4974053;28;20205;-57
2022/06/15 12:58:07;;;;;;;3.67;1.73;;;;;;;;;;4974048;28;20229;-57
2022/06/15 13:00:35;;;;;;;6.13;1.60;;;;;;;;;;4974026;28;20246;-57
2022/06/15 13:03:08;;;;;;;5.30;1.50;;;;;;;;;;4973985;28;20653;-57
2022/06/15 13:05:38;;;;;;;3.83;1.80;;;;;;;;;;4973818;28;20599;-57
2022/06/15 13:08:20;;;;;;;4.17;1.90;;;;;;;;;;4973825;28;20210;-57
2022/06/15 13:11:13;;;;;;;3.97;1.70;;;;;;;;;;4973670;28;20575;-56
2022/06/15 13:13:40;;;;;;;3.90;1.83;;;;;;;;;;4927989;28;20284;-57
2022/06/15 13:16:08;;;;;;;4.90;1.83;;;;;;;;;;4973569;28;20319;-56
2022/06/15 13:18:40;;;;;;;2.13;1.50;;;;;;;;;;4973611;28;20198;-57
2022/06/15 13:21:06;;;;;;;8.83;1.87;;;;;;;;;;4973636;28;20284;-56
2022/06/15 13:23:38;;;;;;;2.57;1.57;;;;;;;;;;4973511;28;20206;-57
2022/06/15 13:26:09;;;;;;;3.87;1.93;;;;;;;;;;4973337;28;20321;-56
2022/06/15 13:28:37;;;;;;;4.33;1.63;;;;;;;;;;4973527;28;20269;-56
2022/06/15 13:31:04;;;;;;;3.60;1.70;;;;;;;;;;4973230;28;20610;-56
2022/06/15 13:33:49;;;;;;;2.50;1.70;;;;;;;;;;4972994;28;20213;-56
2022/06/15 13:36:22;;;;;;;2.37;1.70;;;;;;;;;;4973051;28;20645;-57
2022/06/15 13:38:49;;;;;;;5.43;1.70;;;;;;;;;;4973007;28;20226;-57
2022/06/15 13:41:21;;;;;;;7.83;1.80;;;;;;;;;;4973344;28;20624;-57
2022/06/15 13:44:07;;;;;;;4.50;1.70;;;;;;;;;;4973220;28;20657;-56
2022/06/15 13:46:35;;;;;;;4.47;1.70;;;;;;;;;;4972939;28;20205;-56
2022/06/15 13:49:14;;;;;;;2.43;1.43;;;;;;;;;;4972987;28;20209;-56
2022/06/15 13:51:42;;;;;;;3.00;1.70;;;;;;;;;;4972792;28;20257;-56
2022/06/15 13:54:13;;;;;;;2.70;1.80;;;;;;;;;;4972962;28;20237;-58
2022/06/15 13:56:44;;;;;;;6.00;1.90;;;;;;;;;;4972970;28;20691;-56
2022/06/15 13:59:12;;;;;;;3.50;1.50;;;;;;;;;;4973221;28;20212;-56
2022/06/15 14:01:56;;;;;;;2.77;1.47;;;;;;;;;;4973045;28;20203;-57
2022/06/15 14:04:32;;;;;;;3.93;1.40;;;;;;;;;;4972308;28;20236;-57
2022/06/15 14:07:17;;;;;;;3.00;1.40;;;;;;;;;;4972699;28;20246;-55
2022/06/15 14:09:50;;;;;;;3.37;1.50;;;;;;;;;;4972783;28;20220;-55
2022/06/15 14:12:23;;;;;;;2.80;1.60;;;;;;;;;;4972136;28;20221;-56
2022/06/15 14:14:56;;;;;;;6.03;1.70;;;;;;;;;;4972336;28;20229;-55
2022/06/15 14:17:46;;;;;;;4.37;2.63;;;;;;;;;;4972478;28;20219;-55
2022/06/15 14:20:15;;;;;;;3.97;1.70;;;;;;;;;;4901021;28;20282;-57
2022/06/15 14:22:47;;;;;;;1.93;1.50;;;;;;;;;;4972722;28;20210;-56
2022/06/15 14:25:15;;;;;;;3.63;1.57;;;;;;;;;;4972709;28;20227;-55
2022/06/15 14:27:41;;;;;;;3.53;1.80;;;;;;;;;;4972522;28;20704;-56
2022/06/15 14:30:18;;;;;;;4.27;1.70;;;;;;;;;;4972421;28;21005;-56
2022/06/15 14:32:44;;;;;;;4.40;1.80;;;;;;;;;;4972375;28;20204;-55
2022/06/15 14:35:12;;;;;;;2.23;1.50;;;;;;;;;;4972539;28;20569;-55
2022/06/15 14:37:38;;;;;;;5.30;1.60;;;;;;;;;;4970855;28;20207;-55
2022/06/15 14:40:07;;;;;;;2.47;1.70;;;;;;;;;;4969853;28;20209;-55
2022/06/15 14:42:54;;;;;;;6.57;1.60;;;;;;;;;;4972390;28;20632;-56
2022/06/15 14:45:21;;;;;;;2.27;1.40;;;;;;;;;;4972268;28;20229;-55
2022/06/15 14:47:50;;;;;;;3.97;1.77;;;;;;;;;;4971916;28;20193;-55
2022/06/15 14:50:16;;;;;;;4.23;1.60;;;;;;;;;;4971943;28;20197;-56
2022/06/15 14:52:42;;;;;;;4.67;1.67;;;;;;;;;;4971968;28;20211;-55
2022/06/15 14:55:16;;;;;;;2.63;1.60;;;;;;;;;;4971640;28;20193;-55
2022/06/15 14:57:42;;;;;;;3.70;2.00;;;;;;;;;;4971782;28;20212;-55
2022/06/15 15:00:16;;;;;;;2.70;1.50;;;;;;;;;;4971956;28;20234;-55
2022/06/15 15:02:44;;;;;;;4.07;1.60;;;;;;;;;;4971789;28;20278;-55
2022/06/15 15:05:10;;;;;;;3.40;1.80;;;;;;;;;;4971712;28;20687;-56
2022/06/15 15:10:26;;;;;;;2.37;1.50;;;;;;;;;;4972224;28;20251;-55
2022/06/15 15:12:52;;;;;;;5.10;1.53;;;;;;;;;;4972222;28;20216;-55